Time;durP1;ratioP1;P1;durP2;ratioP2;P2;SDS_P1;SDS_P2;PMS_P1;PMS_P2;Temp;Humidity;BMP_temperature;BMP_pressure;BME280_temperature;BME280_humidity;BME280_pressure;Samples;Min_cycle;Max_cycle;Signal;HPM_P1;HPM_P2
2023/06/07 00:01:05;;;;;;;3.40;1.85;;;11.00;99.90;;;;;;6246715;23;20085;-64
2023/06/07 00:03:31;;;;;;;3.60;2.05;;;11.00;99.90;;;;;;6246001;23;20035;-63
2023/06/07 00:06:00;;;;;;;2.90;1.70;;;11.00;99.90;;;;;;6228061;22;20033;-63
2023/06/07 00:08:27;;;;;;;3.15;1.50;;;11.00;99.90;;;;;;6276730;22;19999;-64
2023/06/07 00:10:52;;;;;;;4.57;1.65;;;11.00;99.90;;;;;;6276420;22;20275;-64
2023/06/07 00:13:18;;;;;;;3.42;1.95;;;11.00;99.90;;;;;;6276983;22;20095;-64
2023/06/07 00:15:44;;;;;;;3.55;1.63;;;11.00;99.90;;;;;;6275710;22;20079;-63
2023/06/07 00:18:10;;;;;;;5.55;1.83;;;11.00;99.90;;;;;;6275551;22;20074;-64
2023/06/07 00:20:35;;;;;;;2.35;1.83;;;11.00;99.90;;;;;;6249169;22;20052;-64
2023/06/07 00:23:01;;;;;;;2.50;1.90;;;11.00;99.90;;;;;;6276113;22;20011;-64
2023/06/07 00:25:27;;;;;;;3.35;2.00;;;11.00;99.90;;;;;;6276433;22;20078;-64
2023/06/07 00:27:53;;;;;;;2.47;1.98;;;10.90;99.90;;;;;;6276986;22;20104;-64
2023/06/07 00:30:19;;;;;;;5.93;1.80;;;11.00;99.90;;;;;;6276792;22;20007;-63
2023/06/07 00:32:45;;;;;;;2.58;1.92;;;10.90;99.90;;;;;;6276310;22;20038;-64
2023/06/07 00:35:11;;;;;;;6.10;1.70;;;10.90;99.90;;;;;;6276083;22;20000;-63
2023/06/07 00:37:37;;;;;;;2.53;1.95;;;10.90;99.90;;;;;;6275525;22;20071;-64
2023/06/07 00:40:05;;;;;;;3.92;2.10;;;10.80;99.90;;;;;;6275560;22;20234;-64
2023/06/07 00:42:32;;;;;;;2.80;1.65;;;10.80;99.90;;;;;;6275507;22;20031;-64
2023/06/07 00:44:57;;;;;;;1.88;1.55;;;10.80;99.90;;;;;;6275633;22;20014;-64
2023/06/07 00:47:25;;;;;;;2.97;1.67;;;10.80;99.90;;;;;;6275891;22;20310;-64
2023/06/07 00:49:51;;;;;;;2.90;1.70;;;10.80;99.90;;;;;;6248337;22;20000;-63
2023/06/07 00:52:17;;;;;;;2.05;1.55;;;10.70;99.90;;;;;;6248287;22;20361;-64
2023/06/07 00:54:43;;;;;;;1.60;1.40;;;10.60;99.90;;;;;;6275507;22;20053;-64
2023/06/07 00:57:10;;;;;;;1.55;1.23;;;10.60;99.90;;;;;;6248539;22;20003;-64
2023/06/07 00:59:37;;;;;;;2.60;1.65;;;10.60;99.90;;;;;;6275899;22;19992;-63
2023/06/07 01:02:04;;;;;;;2.58;1.55;;;10.50;99.90;;;;;;6275889;22;20018;-64
2023/06/07 01:04:30;;;;;;;2.63;2.08;;;10.50;99.90;;;;;;6275173;22;20012;-64
2023/06/07 01:06:57;;;;;;;2.80;2.03;;;10.50;99.90;;;;;;6275193;22;20008;-63
2023/06/07 01:09:24;;;;;;;2.58;2.08;;;10.50;99.90;;;;;;6274050;22;20078;-64
2023/06/07 01:11:53;;;;;;;2.92;2.13;;;10.50;99.90;;;;;;6275217;22;19999;-63
2023/06/07 01:14:19;;;;;;;3.03;2.10;;;10.50;99.90;;;;;;6248034;22;20049;-63
2023/06/07 01:16:50;;;;;;;4.35;2.10;;;10.50;99.90;;;;;;6274628;22;20035;-63
2023/06/07 01:19:21;;;;;;;3.50;2.30;;;10.50;99.90;;;;;;6275239;22;20027;-63
2023/06/07 01:21:50;;;;;;;2.22;2.03;;;10.50;99.90;;;;;;6275279;22;19996;-63
2023/06/07 01:24:18;;;;;;;3.75;1.98;;;10.50;99.90;;;;;;6275638;22;20061;-63
2023/06/07 01:26:46;;;;;;;4.10;2.30;;;10.50;99.90;;;;;;6276321;22;19995;-63
2023/06/07 01:29:12;;;;;;;2.85;2.08;;;10.50;99.90;;;;;;6275460;22;20239;-63
2023/06/07 01:31:39;;;;;;;4.85;1.92;;;10.50;99.90;;;;;;6276041;22;20077;-63
2023/06/07 01:34:07;;;;;;;3.72;2.03;;;10.50;99.90;;;;;;6275654;22;20035;-62
2023/06/07 01:36:34;;;;;;;3.53;2.28;;;10.50;99.90;;;;;;6275625;22;19988;-63
2023/06/07 01:39:02;;;;;;;2.63;2.20;;;10.50;99.90;;;;;;6275433;22;20007;-62
2023/06/07 01:41:29;;;;;;;3.13;1.88;;;10.50;99.90;;;;;;6275441;22;20071;-63
2023/06/07 01:43:57;;;;;;;3.25;2.10;;;10.50;99.90;;;;;;6248710;22;20012;-62
2023/06/07 01:46:23;;;;;;;2.78;2.33;;;10.50;99.90;;;;;;6248226;22;20378;-63
2023/06/07 01:48:49;;;;;;;3.10;2.10;;;10.50;99.90;;;;;;6275491;22;20022;-63
2023/06/07 01:51:15;;;;;;;2.15;1.80;;;10.50;99.90;;;;;;6275303;22;20000;-63
2023/06/07 01:53:41;;;;;;;2.38;2.03;;;10.50;99.90;;;;;;6275266;22;20485;-63
2023/06/07 01:56:31;;;;;;;2.63;1.88;;;10.50;99.90;;;;;;6275287;22;20065;-63
2023/06/07 01:59:07;;;;;;;3.85;1.95;;;10.50;99.90;;;;;;6274877;22;20215;-62
2023/06/07 02:01:54;;;;;;;2.85;2.13;;;10.50;99.90;;;;;;6275849;22;20302;-62
2023/06/07 02:04:23;;;;;;;2.65;1.95;;;10.50;99.90;;;;;;6276105;22;20034;-63
2023/06/07 02:06:51;;;;;;;2.38;1.85;;;10.40;99.90;;;;;;6275792;22;20065;-63
2023/06/07 02:09:20;;;;;;;3.28;2.30;;;10.40;99.90;;;;;;6275434;22;19995;-64
2023/06/07 02:11:47;;;;;;;2.58;1.58;;;10.40;99.90;;;;;;6274906;22;20429;-64
2023/06/07 02:14:12;;;;;;;3.38;2.17;;;10.40;99.90;;;;;;6274993;22;20035;-63
2023/06/07 02:16:40;;;;;;;3.35;2.25;;;10.40;99.90;;;;;;6275819;22;20003;-64
2023/06/07 02:19:07;;;;;;;2.60;1.92;;;10.40;99.90;;;;;;6275041;22;20007;-64
2023/06/07 02:21:36;;;;;;;3.03;1.70;;;10.40;99.90;;;;;;6274616;22;20081;-63
2023/06/07 02:24:06;;;;;;;2.72;1.42;;;10.40;99.90;;;;;;6274668;22;20035;-63
2023/06/07 02:26:32;;;;;;;1.50;1.30;;;10.40;99.90;;;;;;6274910;22;20002;-63
2023/06/07 02:28:58;;;;;;;4.13;1.95;;;10.30;99.90;;;;;;6274469;22;20002;-64
2023/06/07 02:31:25;;;;;;;1.52;1.40;;;10.30;99.90;;;;;;6274827;22;19995;-64
2023/06/07 02:33:51;;;;;;;1.80;1.42;;;10.30;99.90;;;;;;6248996;22;20000;-63
2023/06/07 02:36:21;;;;;;;1.90;1.52;;;10.30;99.90;;;;;;6275893;22;19999;-62
2023/06/07 02:38:48;;;;;;;2.13;1.40;;;10.20;99.90;;;;;;6274980;22;20066;-64
2023/06/07 02:41:13;;;;;;;4.45;1.65;;;10.30;99.90;;;;;;6275527;22;20023;-63
2023/06/07 02:43:39;;;;;;;6.25;2.17;;;10.30;99.90;;;;;;6275448;22;20433;-64
2023/06/07 02:46:06;;;;;;;1.95;1.63;;;10.30;99.90;;;;;;6275094;22;20098;-64
2023/06/07 02:48:32;;;;;;;1.98;1.67;;;10.30;99.90;;;;;;6275409;22;20002;-64
2023/06/07 02:50:57;;;;;;;2.03;1.50;;;10.30;99.90;;;;;;6273495;22;19999;-64
2023/06/07 02:53:24;;;;;;;2.50;1.80;;;10.20;99.90;;;;;;6275633;22;19996;-65
2023/06/07 02:55:50;;;;;;;2.63;1.73;;;10.20;99.90;;;;;;6275167;22;20000;-63
2023/06/07 02:58:16;;;;;;;3.83;1.88;;;10.20;99.90;;;;;;6275499;22;20463;-63
2023/06/07 03:00:41;;;;;;;4.68;2.28;;;10.20;99.90;;;;;;6274869;22;20000;-63
2023/06/07 03:03:07;;;;;;;3.00;2.00;;;10.20;99.90;;;;;;6274713;22;20010;-63
2023/06/07 03:05:33;;;;;;;4.38;2.17;;;10.20;99.90;;;;;;6275246;22;21071;-64
2023/06/07 03:08:00;;;;;;;5.22;2.33;;;10.20;99.90;;;;;;6275339;22;20008;-63
2023/06/07 03:10:26;;;;;;;3.72;2.40;;;10.20;99.90;;;;;;6275887;22;19992;-63
2023/06/07 03:12:51;;;;;;;3.00;2.20;;;10.20;99.90;;;;;;6275199;22;20004;-63
2023/06/07 03:15:17;;;;;;;2.55;2.20;;;10.10;99.90;;;;;;6275452;22;20049;-63
2023/06/07 03:17:43;;;;;;;4.07;2.72;;;10.10;99.90;;;;;;6274656;22;19992;-63
2023/06/07 03:20:09;;;;;;;2.65;1.92;;;10.10;99.90;;;;;;6275150;22;20034;-63
2023/06/07 03:22:38;;;;;;;4.55;2.90;;;10.10;99.90;;;;;;6275142;22;19999;-64
2023/06/07 03:25:04;;;;;;;3.10;2.03;;;10.10;99.90;;;;;;6274547;22;20008;-63
2023/06/07 03:27:32;;;;;;;4.97;2.72;;;10.10;99.90;;;;;;6275775;22;20065;-63
2023/06/07 03:29:59;;;;;;;3.88;2.70;;;10.00;99.90;;;;;;6274988;22;20075;-63
2023/06/07 03:32:25;;;;;;;4.97;3.05;;;10.10;99.90;;;;;;6247729;22;20003;-63
2023/06/07 03:34:51;;;;;;;3.08;2.60;;;10.10;99.90;;;;;;6274715;22;20361;-63
2023/06/07 03:37:16;;;;;;;5.70;2.92;;;10.00;99.90;;;;;;6247802;22;20341;-64
2023/06/07 03:39:42;;;;;;;2.90;2.20;;;10.00;99.90;;;;;;6276423;22;19996;-65
2023/06/07 03:42:08;;;;;;;4.07;3.00;;;10.00;99.90;;;;;;6277525;22;19995;-64
2023/06/07 03:44:33;;;;;;;6.90;3.00;;;10.00;99.90;;;;;;6250309;22;20057;-63
2023/06/07 03:46:59;;;;;;;4.70;3.05;;;10.00;99.90;;;;;;6276866;22;20027;-64
2023/06/07 03:49:25;;;;;;;4.35;3.20;;;10.00;99.90;;;;;;6277075;22;19992;-64
2023/06/07 03:51:51;;;;;;;7.55;3.35;;;10.00;99.90;;;;;;6249605;22;20046;-64
2023/06/07 03:54:17;;;;;;;4.72;3.78;;;10.00;99.90;;;;;;6276193;22;20000;-63
2023/06/07 03:56:42;;;;;;;5.93;4.10;;;10.00;99.90;;;;;;6277064;22;20402;-64
2023/06/07 03:59:08;;;;;;;10.18;5.70;;;10.00;99.90;;;;;;6274451;22;20310;-64
2023/06/07 04:01:34;;;;;;;11.43;6.32;;;10.00;99.90;;;;;;6277121;22;20313;-64
2023/06/07 04:04:00;;;;;;;7.65;6.32;;;10.00;99.90;;;;;;6249398;22;20011;-64
2023/06/07 04:06:26;;;;;;;8.40;6.18;;;10.00;99.90;;;;;;6275869;22;20442;-64
2023/06/07 04:08:59;;;;;;;8.48;6.03;;;9.90;99.90;;;;;;6276177;22;20018;-64
2023/06/07 04:11:27;;;;;;;8.02;5.68;;;9.90;99.90;;;;;;6277293;22;19996;-64
2023/06/07 04:13:52;;;;;;;8.52;6.15;;;9.90;99.90;;;;;;6277232;22;20075;-64
2023/06/07 04:16:18;;;;;;;9.18;5.45;;;9.90;99.90;;;;;;6276875;22;20023;-64
2023/06/07 04:18:44;;;;;;;5.97;4.03;;;9.90;99.90;;;;;;6276763;22;20429;-64
2023/06/07 04:21:09;;;;;;;8.88;4.65;;;9.90;99.90;;;;;;6275998;22;20505;-63
2023/06/07 04:23:36;;;;;;;6.63;4.10;;;9.90;99.90;;;;;;6275559;22;20004;-64
2023/06/07 04:26:05;;;;;;;4.95;3.95;;;9.90;99.90;;;;;;6276036;22;20250;-64
2023/06/07 04:28:31;;;;;;;7.93;4.43;;;9.90;99.90;;;;;;6276824;22;20026;-64
2023/06/07 04:30:57;;;;;;;5.30;3.75;;;9.90;99.90;;;;;;6277171;22;20341;-64
2023/06/07 04:33:23;;;;;;;5.95;3.80;;;9.90;99.90;;;;;;6275197;22;20053;-64
2023/06/07 04:35:50;;;;;;;3.72;3.33;;;10.00;99.90;;;;;;6276382;22;20061;-64
2023/06/07 04:38:20;;;;;;;4.72;3.47;;;10.00;99.90;;;;;;6275846;22;20038;-63
2023/06/07 04:40:48;;;;;;;6.57;3.55;;;10.00;99.90;;;;;;6275734;22;19991;-64
2023/06/07 04:43:18;;;;;;;4.78;3.45;;;10.10;99.90;;;;;;6275991;22;20471;-64
2023/06/07 04:45:54;;;;;;;5.75;3.53;;;10.00;99.90;;;;;;6275933;22;20052;-63
2023/06/07 04:48:25;;;;;;;6.78;3.78;;;10.10;99.90;;;;;;6276729;22;19996;-63
2023/06/07 04:50:52;;;;;;;4.60;3.42;;;10.10;99.90;;;;;;6276381;22;20002;-63
2023/06/07 04:53:19;;;;;;;5.15;3.88;;;10.10;99.90;;;;;;6276291;22;19996;-63
2023/06/07 04:55:50;;;;;;;6.45;3.97;;;10.10;99.90;;;;;;6274128;22;20027;-64
2023/06/07 04:58:16;;;;;;;6.97;4.07;;;10.10;99.90;;;;;;6275510;22;20469;-65
2023/06/07 05:00:43;;;;;;;4.75;3.90;;;10.10;99.90;;;;;;6276198;22;20347;-63
2023/06/07 05:03:08;;;;;;;6.88;4.25;;;10.10;99.90;;;;;;6276188;22;19996;-62
2023/06/07 05:05:35;;;;;;;5.00;4.18;;;10.10;99.90;;;;;;6276115;22;20015;-65
2023/06/07 05:08:01;;;;;;;6.88;4.10;;;10.10;99.90;;;;;;6275783;22;20004;-64
2023/06/07 05:10:27;;;;;;;5.28;4.03;;;10.10;99.90;;;;;;6276089;22;20014;-63
2023/06/07 05:12:52;;;;;;;5.40;4.38;;;10.20;99.90;;;;;;6275514;22;19987;-64
2023/06/07 05:15:18;;;;;;;8.43;4.40;;;10.20;99.90;;;;;;6275878;22;19999;-64
2023/06/07 05:17:48;;;;;;;5.10;4.18;;;10.10;99.90;;;;;;6276213;22;20083;-64
2023/06/07 05:20:15;;;;;;;5.93;3.75;;;10.20;99.90;;;;;;6275568;22;20313;-64
2023/06/07 05:22:41;;;;;;;5.68;3.70;;;10.20;99.90;;;;;;6275955;22;20022;-64
2023/06/07 05:25:09;;;;;;;5.38;4.03;;;10.20;99.90;;;;;;6276487;22;20010;-64
2023/06/07 05:27:36;;;;;;;4.05;3.53;;;10.20;99.90;;;;;;6275397;22;20030;-64
2023/06/07 05:30:04;;;;;;;8.50;3.85;;;10.20;99.90;;;;;;6275633;22;19988;-65
2023/06/07 05:32:30;;;;;;;10.95;3.25;;;10.20;99.90;;;;;;6276063;22;20000;-63
2023/06/07 05:34:57;;;;;;;4.57;3.40;;;10.20;99.90;;;;;;6275282;22;19996;-64
2023/06/07 05:37:25;;;;;;;8.68;3.38;;;10.20;99.90;;;;;;6276215;22;19995;-63
2023/06/07 05:39:51;;;;;;;9.57;3.42;;;10.20;99.90;;;;;;6276361;22;19999;-63
2023/06/07 05:42:16;;;;;;;8.30;3.03;;;10.20;99.90;;;;;;6275890;22;20463;-62
2023/06/07 05:44:45;;;;;;;6.38;3.00;;;10.20;99.90;;;;;;6274945;22;20003;-62
2023/06/07 05:47:10;;;;;;;5.35;2.92;;;10.20;99.90;;;;;;6275975;22;20003;-63
2023/06/07 05:49:36;;;;;;;6.95;3.20;;;10.20;99.90;;;;;;6275311;22;20000;-63
2023/06/07 05:52:02;;;;;;;8.70;3.00;;;10.30;99.90;;;;;;6275407;22;20087;-63
2023/06/07 05:54:27;;;;;;;4.70;3.10;;;10.30;99.90;;;;;;6248666;22;20071;-64
2023/06/07 05:56:53;;;;;;;5.20;4.07;;;10.30;99.90;;;;;;6275834;22;20144;-64
2023/06/07 05:59:18;;;;;;;6.32;4.25;;;10.30;99.90;;;;;;6274069;22;19992;-64
2023/06/07 06:01:44;;;;;;;7.97;4.88;;;10.30;99.90;;;;;;6274851;22;20457;-64
2023/06/07 06:04:11;;;;;;;11.13;6.40;;;10.30;99.90;;;;;;6274696;22;20016;-64
2023/06/07 06:06:38;;;;;;;12.30;8.55;;;10.30;99.90;;;;;;6274514;22;20433;-64
2023/06/07 06:09:04;;;;;;;20.13;11.48;;;10.40;99.90;;;;;;6275691;22;19995;-63
2023/06/07 06:11:30;;;;;;;20.30;12.80;;;10.40;99.90;;;;;;6275863;22;20071;-64
2023/06/07 06:13:55;;;;;;;16.65;13.00;;;10.40;99.90;;;;;;6275368;22;20363;-64
2023/06/07 06:16:21;;;;;;;18.27;12.88;;;10.40;99.90;;;;;;6274643;22;20064;-64
2023/06/07 06:18:47;;;;;;;17.98;14.00;;;10.40;99.90;;;;;;6274803;22;19999;-64
2023/06/07 06:21:12;;;;;;;19.25;13.95;;;10.40;99.90;;;;;;6275287;22;20000;-64
2023/06/07 06:23:38;;;;;;;23.13;13.40;;;10.40;99.90;;;;;;6274478;22;20008;-64
2023/06/07 06:26:04;;;;;;;24.70;15.00;;;10.40;99.90;;;;;;6274725;22;20083;-64
2023/06/07 06:28:30;;;;;;;20.50;14.75;;;10.40;99.90;;;;;;6274469;22;20019;-63
2023/06/07 06:30:55;;;;;;;19.75;14.15;;;10.40;99.90;;;;;;6247498;22;20291;-64
2023/06/07 06:33:21;;;;;;;19.55;14.32;;;10.40;99.90;;;;;;6274000;22;20506;-63
2023/06/07 06:35:47;;;;;;;20.20;14.15;;;10.50;99.90;;;;;;6274635;22;20437;-64
2023/06/07 06:38:13;;;;;;;26.30;15.73;;;10.50;99.90;;;;;;6274427;22;20003;-64
2023/06/07 06:40:39;;;;;;;22.40;15.07;;;10.50;99.90;;;;;;6274493;22;19991;-64
2023/06/07 06:43:05;;;;;;;19.17;14.38;;;10.50;99.90;;;;;;6274631;22;20414;-64
2023/06/07 06:45:31;;;;;;;18.80;13.65;;;10.50;99.90;;;;;;6275133;22;20075;-64
2023/06/07 06:47:58;;;;;;;21.20;13.73;;;10.50;99.90;;;;;;6275102;22;20079;-64
2023/06/07 06:50:24;;;;;;;22.50;12.35;;;10.50;99.90;;;;;;6275109;22;20075;-64
2023/06/07 06:52:50;;;;;;;15.90;11.00;;;10.60;99.90;;;;;;6275078;22;20035;-65
2023/06/07 06:55:17;;;;;;;21.25;10.10;;;10.60;99.90;;;;;;6275420;22;20107;-64
2023/06/07 06:57:43;;;;;;;13.45;10.30;;;10.70;99.90;;;;;;6275263;22;19995;-63
2023/06/07 07:00:09;;;;;;;16.95;11.07;;;10.70;99.90;;;;;;6275845;22;20080;-63
2023/06/07 07:02:35;;;;;;;20.05;10.43;;;10.70;99.90;;;;;;6275643;22;20010;-65
2023/06/07 07:05:03;;;;;;;13.85;10.23;;;10.80;99.90;;;;;;6275877;22;20075;-64
2023/06/07 07:07:29;;;;;;;14.68;10.50;;;10.80;99.90;;;;;;6276154;22;20057;-65
2023/06/07 07:09:55;;;;;;;16.15;11.30;;;10.80;99.90;;;;;;6276240;22;19999;-63
2023/06/07 07:12:23;;;;;;;18.98;12.15;;;10.90;99.90;;;;;;6276043;22;19999;-64
2023/06/07 07:14:49;;;;;;;14.95;11.13;;;10.90;99.90;;;;;;6278039;22;20370;-65
2023/06/07 07:17:15;;;;;;;16.92;11.45;;;10.90;99.90;;;;;;6277110;22;20015;-63
2023/06/07 07:19:41;;;;;;;18.63;11.25;;;10.90;99.90;;;;;;6277234;22;20129;-64
2023/06/07 07:22:07;;;;;;;16.02;11.38;;;11.00;99.90;;;;;;6277363;22;19999;-64
2023/06/07 07:24:32;;;;;;;18.33;12.10;;;11.00;99.90;;;;;;6250619;22;20126;-63
2023/06/07 07:26:58;;;;;;;20.33;12.55;;;11.00;99.90;;;;;;6277979;22;20306;-63
2023/06/07 07:29:24;;;;;;;17.80;13.48;;;11.00;99.90;;;;;;6277419;22;20030;-63
2023/06/07 07:31:50;;;;;;;20.83;14.02;;;11.00;99.90;;;;;;6277581;22;20049;-64
2023/06/07 07:34:16;;;;;;;17.02;13.48;;;11.00;99.90;;;;;;6277894;22;20071;-64
2023/06/07 07:36:43;;;;;;;21.27;13.60;;;11.00;99.90;;;;;;6278030;22;20069;-63
2023/06/07 07:39:15;;;;;;;20.77;13.30;;;11.10;99.90;;;;;;6278075;22;20069;-63
2023/06/07 07:41:41;;;;;;;16.77;12.65;;;11.10;99.90;;;;;;6277380;22;19996;-64
2023/06/07 07:44:07;;;;;;;20.65;12.73;;;11.00;99.90;;;;;;6277606;22;20306;-65
2023/06/07 07:46:33;;;;;;;16.50;11.10;;;11.00;99.90;;;;;;6276431;22;20059;-64
2023/06/07 07:48:59;;;;;;;16.15;10.52;;;11.10;99.90;;;;;;6275142;22;19995;-64
2023/06/07 07:51:25;;;;;;;13.70;9.95;;;11.10;99.90;;;;;;6276303;22;19996;-63
2023/06/07 07:53:53;;;;;;;16.40;9.90;;;11.20;99.90;;;;;;6277400;22;20004;-64
2023/06/07 07:56:21;;;;;;;16.50;10.85;;;11.30;99.90;;;;;;6277425;22;20045;-64
2023/06/07 07:58:47;;;;;;;18.08;10.77;;;11.30;99.90;;;;;;6250195;22;20025;-64
2023/06/07 08:01:16;;;;;;;15.73;10.80;;;11.40;99.90;;;;;;6276458;22;20007;-64
2023/06/07 08:03:42;;;;;;;17.15;10.30;;;11.40;99.90;;;;;;6277226;22;20000;-63
2023/06/07 08:06:08;;;;;;;17.55;12.68;;;11.40;99.90;;;;;;6271162;22;20011;-64
2023/06/07 08:08:34;;;;;;;18.70;12.88;;;11.50;99.90;;;;;;6276158;22;20010;-63
2023/06/07 08:11:00;;;;;;;19.40;13.82;;;11.50;99.90;;;;;;6276446;22;20074;-63
2023/06/07 08:13:26;;;;;;;25.02;12.63;;;11.50;99.90;;;;;;6276699;22;20132;-63
2023/06/07 08:15:51;;;;;;;18.90;12.70;;;11.60;99.90;;;;;;6275723;22;20433;-65
2023/06/07 08:18:17;;;;;;;16.25;11.68;;;11.60;99.90;;;;;;6276805;22;20058;-64
2023/06/07 08:20:43;;;;;;;12.52;9.43;;;11.60;99.90;;;;;;6249479;22;19996;-63
2023/06/07 08:23:09;;;;;;;11.82;8.90;;;11.70;99.90;;;;;;6276371;22;20003;-63
2023/06/07 08:25:35;;;;;;;11.90;8.55;;;11.80;99.90;;;;;;6276336;22;20414;-63
2023/06/07 08:28:00;;;;;;;15.73;9.73;;;11.80;99.90;;;;;;6276251;22;20003;-64
2023/06/07 08:30:26;;;;;;;11.30;9.20;;;11.80;99.90;;;;;;6276426;22;20000;-64
2023/06/07 08:32:51;;;;;;;14.73;10.88;;;11.80;99.90;;;;;;6276343;22;19996;-64
2023/06/07 08:35:17;;;;;;;14.35;10.90;;;11.90;99.90;;;;;;6276767;22;19996;-63
2023/06/07 08:37:43;;;;;;;18.38;12.27;;;12.00;99.90;;;;;;6276266;22;19997;-64
2023/06/07 08:40:10;;;;;;;18.88;11.77;;;12.00;99.90;;;;;;6274793;22;20034;-63
2023/06/07 08:42:38;;;;;;;19.65;13.18;;;12.10;99.90;;;;;;6276611;22;19995;-63
2023/06/07 08:45:04;;;;;;;16.58;12.18;;;12.10;99.90;;;;;;6276296;22;20026;-64
2023/06/07 08:47:32;;;;;;;20.10;11.85;;;12.10;99.90;;;;;;6275986;22;20126;-63
2023/06/07 08:49:58;;;;;;;21.20;12.82;;;12.10;99.90;;;;;;6275765;22;20000;-63
2023/06/07 08:52:25;;;;;;;16.23;11.63;;;12.10;99.90;;;;;;6276100;22;20142;-63
2023/06/07 08:54:54;;;;;;;19.20;12.02;;;12.10;99.90;;;;;;6275868;22;20011;-64
2023/06/07 08:57:20;;;;;;;19.50;12.85;;;12.10;99.90;;;;;;6275983;22;20052;-64
2023/06/07 08:59:48;;;;;;;16.95;11.75;;;12.20;99.90;;;;;;6275705;22;19996;-64
2023/06/07 09:02:14;;;;;;;18.45;11.57;;;12.20;99.90;;;;;;6275427;22;20441;-65
2023/06/07 09:04:41;;;;;;;16.08;11.20;;;12.30;99.90;;;;;;6248609;22;20484;-64
2023/06/07 09:07:07;;;;;;;13.07;9.63;;;12.40;99.90;;;;;;6275788;22;20084;-66
2023/06/07 09:09:39;;;;;;;16.00;11.07;;;12.40;99.90;;;;;;6275849;22;19999;-64
2023/06/07 09:12:06;;;;;;;19.55;11.70;;;12.40;99.90;;;;;;6276539;22;20003;-62
2023/06/07 09:14:32;;;;;;;20.52;12.13;;;12.50;99.90;;;;;;6275697;22;20368;-64
2023/06/07 09:16:59;;;;;;;14.68;10.93;;;12.50;99.90;;;;;;6276160;22;19999;-63
2023/06/07 09:19:34;;;;;;;20.35;11.23;;;12.50;99.90;;;;;;6275956;22;20018;-64
2023/06/07 09:22:06;;;;;;;19.08;11.70;;;12.50;99.90;;;;;;6275115;22;20003;-64
2023/06/07 09:24:33;;;;;;;16.77;11.23;;;12.50;99.90;;;;;;6274998;22;20004;-63
2023/06/07 09:27:00;;;;;;;16.73;11.75;;;12.60;99.90;;;;;;6248080;22;20014;-63
2023/06/07 09:29:28;;;;;;;13.82;10.25;;;12.70;99.90;;;;;;6274976;22;20082;-64
2023/06/07 09:31:56;;;;;;;19.33;10.43;;;12.70;99.90;;;;;;6275231;22;20069;-63
2023/06/07 09:34:26;;;;;;;19.00;10.20;;;12.60;99.90;;;;;;6275571;22;20038;-63
2023/06/07 09:36:53;;;;;;;21.25;10.13;;;12.60;99.90;;;;;;6248563;22;19992;-64
2023/06/07 09:39:28;;;;;;;17.70;9.70;;;12.70;99.90;;;;;;6275857;22;19995;-63
2023/06/07 09:41:55;;;;;;;12.38;8.68;;;12.70;99.90;;;;;;6275873;22;20000;-63
2023/06/07 09:44:28;;;;;;;15.48;9.35;;;12.70;99.90;;;;;;6275917;22;20011;-63
2023/06/07 09:46:58;;;;;;;15.88;10.65;;;12.70;99.90;;;;;;6275085;22;20283;-63
2023/06/07 09:49:28;;;;;;;13.35;10.10;;;12.80;99.90;;;;;;6275272;22;20143;-63
2023/06/07 09:51:54;;;;;;;16.75;10.23;;;12.80;99.90;;;;;;6274496;22;20002;-65
2023/06/07 09:54:37;;;;;;;15.88;10.13;;;12.80;99.90;;;;;;6274394;22;20003;-63
2023/06/07 09:57:06;;;;;;;12.68;9.90;;;12.80;99.90;;;;;;6274798;22;20055;-63
2023/06/07 09:59:32;;;;;;;19.67;10.87;;;12.90;99.90;;;;;;6273313;22;20049;-63
2023/06/07 10:01:58;;;;;;;15.35;10.35;;;12.90;99.90;;;;;;6273919;22;19999;-63
2023/06/07 10:04:24;;;;;;;15.13;10.20;;;13.00;99.90;;;;;;6274460;22;20012;-65
2023/06/07 10:06:54;;;;;;;16.77;11.10;;;13.10;99.90;;;;;;6274647;22;20018;-65
2023/06/07 10:09:20;;;;;;;19.80;10.27;;;13.10;99.90;;;;;;6274751;22;20269;-66
2023/06/07 10:11:52;;;;;;;14.52;9.60;;;13.20;99.90;;;;;;6247872;22;20060;-65
2023/06/07 10:14:20;;;;;;;15.52;10.13;;;13.30;99.90;;;;;;6275152;22;20543;-64
2023/06/07 10:17:04;;;;;;;15.32;9.82;;;13.40;99.90;;;;;;6275531;22;20054;-64
2023/06/07 10:19:38;;;;;;;15.75;9.43;;;13.50;99.90;;;;;;6275438;22;19996;-65
2023/06/07 10:22:08;;;;;;;12.55;8.38;;;13.60;99.90;;;;;;6274180;22;20425;-65
2023/06/07 10:24:46;;;;;;;10.10;6.43;;;13.70;99.90;;;;;;6274466;22;20103;-65
2023/06/07 10:27:17;;;;;;;12.88;7.43;;;13.60;99.90;;;;;;6275305;22;20367;-65
2023/06/07 10:29:52;;;;;;;14.75;8.73;;;13.70;99.90;;;;;;6248284;22;19996;-66
2023/06/07 10:32:26;;;;;;;9.93;7.70;;;13.70;99.80;;;;;;6275391;22;20374;-64
2023/06/07 10:34:54;;;;;;;10.60;7.30;;;13.70;99.80;;;;;;6275384;22;20404;-64
2023/06/07 10:37:20;;;;;;;9.88;6.95;;;13.90;99.60;;;;;;6275053;22;20341;-64
2023/06/07 10:39:46;;;;;;;8.02;6.93;;;14.00;99.10;;;;;;6274547;22;20003;-64
2023/06/07 10:42:13;;;;;;;10.13;7.50;;;14.00;98.60;;;;;;6274675;22;19996;-64
2023/06/07 10:44:39;;;;;;;14.10;7.15;;;14.10;98.40;;;;;;6275125;22;20324;-64
2023/06/07 10:47:25;;;;;;;8.80;5.93;;;14.20;98.20;;;;;;6275399;22;19992;-64
2023/06/07 10:49:51;;;;;;;7.20;5.13;;;14.20;97.90;;;;;;6277207;22;20345;-65
2023/06/07 10:52:17;;;;;;;7.18;4.72;;;14.20;97.60;;;;;;6277407;22;20002;-64
2023/06/07 10:54:45;;;;;;;8.93;4.88;;;14.30;97.40;;;;;;6277277;22;20046;-65
2023/06/07 10:57:10;;;;;;;7.60;4.82;;;14.30;97.20;;;;;;6277275;22;20003;-64
2023/06/07 10:59:38;;;;;;;9.40;5.32;;;14.30;96.50;;;;;;6276628;22;19995;-65
2023/06/07 11:02:20;;;;;;;16.33;7.85;;;14.40;96.40;;;;;;6275873;22;20002;-64
2023/06/07 11:04:50;;;;;;;10.77;6.22;;;14.30;96.00;;;;;;6276631;22;20483;-64
2023/06/07 11:07:28;;;;;;;7.82;6.20;;;14.30;96.10;;;;;;6275458;22;20014;-64
2023/06/07 11:10:03;;;;;;;11.35;6.40;;;14.40;96.20;;;;;;6276237;22;20092;-64
2023/06/07 11:12:40;;;;;;;8.50;5.90;;;14.50;96.00;;;;;;6275375;22;19995;-64
2023/06/07 11:15:20;;;;;;;7.35;5.90;;;14.40;95.60;;;;;;6276433;22;20022;-63
2023/06/07 11:18:08;;;;;;;12.82;5.65;;;14.50;95.70;;;;;;6272105;22;20002;-65
2023/06/07 11:23:24;;;;;;;8.88;5.40;;;14.50;95.40;;;;;;6274893;22;20417;-68
2023/06/07 11:25:52;;;;;;;7.47;4.90;;;14.60;95.30;;;;;;6274053;22;20321;-64
2023/06/07 11:28:28;;;;;;;8.32;4.40;;;14.60;95.00;;;;;;6274727;22;19996;-65
2023/06/07 11:30:55;;;;;;;6.10;3.53;;;14.60;94.90;;;;;;6275179;22;20061;-64
2023/06/07 11:33:23;;;;;;;6.05;3.42;;;14.50;94.90;;;;;;6274303;22;20007;-64
2023/06/07 11:35:50;;;;;;;4.45;3.00;;;14.50;94.90;;;;;;6274416;22;20495;-64
2023/06/07 11:38:16;;;;;;;5.80;2.80;;;14.60;95.00;;;;;;6274421;22;20391;-64
2023/06/07 11:40:42;;;;;;;10.00;3.00;;;14.80;95.00;;;;;;6273038;22;20007;-63
2023/06/07 11:43:11;;;;;;;7.72;3.47;;;14.90;94.50;;;;;;6273881;22;19992;-64
2023/06/07 11:45:39;;;;;;;7.25;3.42;;;14.90;94.30;;;;;;6275194;22;20014;-66
2023/06/07 11:48:05;;;;;;;8.10;2.92;;;15.00;94.10;;;;;;6275290;22;20007;-65
2023/06/07 11:50:31;;;;;;;5.50;3.55;;;15.10;94.00;;;;;;6247867;22;20410;-64
2023/06/07 11:52:57;;;;;;;7.82;3.67;;;15.10;93.70;;;;;;6275864;22;20003;-64
2023/06/07 11:55:24;;;;;;;8.65;3.72;;;15.20;93.70;;;;;;6275159;22;20087;-66
2023/06/07 11:57:53;;;;;;;10.43;4.07;;;15.40;93.70;;;;;;6274987;22;19995;-65
2023/06/07 12:00:23;;;;;;;11.05;3.42;;;15.50;93.50;;;;;;6275142;22;20000;-64
2023/06/07 12:02:53;;;;;;;8.15;3.13;;;15.60;92.60;;;;;;6275076;22;19996;-64
2023/06/07 12:05:29;;;;;;;8.00;3.40;;;15.50;92.30;;;;;;6276426;22;20050;-65
2023/06/07 12:07:59;;;;;;;10.65;3.30;;;15.50;92.30;;;;;;6275974;22;20101;-66
2023/06/07 12:10:27;;;;;;;8.80;3.53;;;15.50;92.10;;;;;;6276123;22;20436;-66
2023/06/07 12:13:11;;;;;;;6.47;3.28;;;15.40;92.10;;;;;;6276111;22;19991;-63
2023/06/07 12:15:58;;;;;;;4.72;3.33;;;15.30;92.10;;;;;;6276246;22;19996;-64
2023/06/07 12:18:34;;;;;;;4.60;3.20;;;15.30;92.30;;;;;;6248453;22;20291;-64
2023/06/07 12:21:08;;;;;;;7.53;2.80;;;15.40;92.20;;;;;;6275620;22;20000;-66
2023/06/07 12:23:35;;;;;;;5.38;2.47;;;15.40;92.20;;;;;;6275703;22;20008;-66
2023/06/07 12:26:09;;;;;;;5.07;1.83;;;15.50;92.00;;;;;;6275794;22;19999;-65
2023/06/07 12:28:35;;;;;;;14.90;3.08;;;15.60;91.70;;;;;;6275711;22;20050;-64
2023/06/07 12:31:01;;;;;;;6.80;2.13;;;15.60;91.60;;;;;;6275835;22;20461;-65
2023/06/07 12:33:27;;;;;;;7.60;2.70;;;15.70;91.50;;;;;;6275994;22;20055;-66
2023/06/07 12:35:53;;;;;;;7.07;2.78;;;15.80;91.20;;;;;;6274846;22;20280;-63
2023/06/07 12:38:20;;;;;;;4.72;2.30;;;15.70;91.00;;;;;;6274631;22;20165;-65
2023/06/07 12:40:46;;;;;;;6.78;2.20;;;15.90;91.30;;;;;;6273188;22;20490;-64
2023/06/07 12:43:12;;;;;;;4.63;2.42;;;16.10;91.00;;;;;;6274536;22;20004;-64
2023/06/07 12:45:38;;;;;;;3.95;1.95;;;16.20;90.30;;;;;;6274673;22;20336;-65